sensor_id;sensor_type;location;lat;lon;timestamp;pressure;altitude;pressure_sealevel;temperature;humidity
23446;BME280;11895;48.738;9.320;2023-04-23T00:00:52;98117.00;;;16.61;100.00
23446;BME280;11895;48.738;9.320;2023-04-23T00:03:24;98114.28;;;16.39;100.00
23446;BME280;11895;48.738;9.320;2023-04-23T00:05:54;98112.56;;;16.38;100.00
23446;BME280;11895;48.738;9.320;2023-04-23T00:08:25;98114.28;;;16.39;100.00
23446;BME280;11895;48.738;9.320;2023-04-23T00:10:53;98116.06;;;16.40;100.00
23446;BME280;11895;48.738;9.320;2023-04-23T00:13:22;98113.72;;;16.35;100.00
23446;BME280;11895;48.738;9.320;2023-04-23T00:15:51;98116.53;;;16.34;100.00
23446;BME280;11895;48.738;9.320;2023-04-23T00:18:19;98110.34;;;16.43;100.00
23446;BME280;11895;48.738;9.320;2023-04-23T00:20:47;98106.66;;;16.44;100.00
23446;BME280;11895;48.738;9.320;2023-04-23T00:23:14;98103.91;;;16.55;100.00
23446;BME280;11895;48.738;9.320;2023-04-23T00:25:42;98102.31;;;16.53;100.00
23446;BME280;11895;48.738;9.320;2023-04-23T00:28:11;98105.19;;;16.40;100.00
23446;BME280;11895;48.738;9.320;2023-04-23T00:30:40;98111.34;;;16.42;100.00
23446;BME280;11895;48.738;9.320;2023-04-23T00:33:08;98110.09;;;16.46;100.00
23446;BME280;11895;48.738;9.320;2023-04-23T00:35:36;98110.59;;;16.51;100.00
23446;BME280;11895;48.738;9.320;2023-04-23T00:38:03;98121.94;;;16.56;100.00
23446;BME280;11895;48.738;9.320;2023-04-23T00:40:58;98107.88;;;16.51;100.00
23446;BME280;11895;48.738;9.320;2023-04-23T00:43:30;98116.50;;;16.67;100.00
23446;BME280;11895;48.738;9.320;2023-04-23T00:45:58;98117.75;;;16.63;100.00
23446;BME280;11895;48.738;9.320;2023-04-23T00:48:29;98116.28;;;16.59;100.00
23446;BME280;11895;48.738;9.320;2023-04-23T00:51:01;98127.75;;;16.63;100.00
23446;BME280;11895;48.738;9.320;2023-04-23T00:53:30;98125.25;;;16.71;100.00
23446;BME280;11895;48.738;9.320;2023-04-23T00:56:01;98127.50;;;16.43;100.00
23446;BME280;11895;48.738;9.320;2023-04-23T00:58:31;98136.53;;;16.55;100.00
23446;BME280;11895;48.738;9.320;2023-04-23T01:00:59;98130.84;;;16.58;100.00
23446;BME280;11895;48.738;9.320;2023-04-23T01:03:31;98132.72;;;16.47;100.00
23446;BME280;11895;48.738;9.320;2023-04-23T01:06:01;98143.97;;;16.31;100.00
23446;BME280;11895;48.738;9.320;2023-04-23T01:08:31;98150.66;;;16.15;100.00
23446;BME280;11895;48.738;9.320;2023-04-23T01:10:59;98147.59;;;15.74;100.00
23446;BME280;11895;48.738;9.320;2023-04-23T01:13:29;98158.88;;;15.56;100.00
23446;BME280;11895;48.738;9.320;2023-04-23T01:15:57;98161.25;;;15.37;100.00
23446;BME280;11895;48.738;9.320;2023-04-23T01:18:25;98163.47;;;15.32;100.00
23446;BME280;11895;48.738;9.320;2023-04-23T01:20:53;98162.78;;;15.17;100.00
23446;BME280;11895;48.738;9.320;2023-04-23T01:23:21;98174.56;;;15.05;100.00
23446;BME280;11895;48.738;9.320;2023-04-23T01:25:49;98172.38;;;14.86;100.00
23446;BME280;11895;48.738;9.320;2023-04-23T01:28:17;98164.44;;;14.83;100.00
23446;BME280;11895;48.738;9.320;2023-04-23T01:30:46;98165.38;;;14.71;100.00
23446;BME280;11895;48.738;9.320;2023-04-23T01:33:14;98172.97;;;14.65;100.00
23446;BME280;11895;48.738;9.320;2023-04-23T01:35:43;98168.09;;;14.45;100.00
23446;BME280;11895;48.738;9.320;2023-04-23T01:38:16;98171.91;;;14.30;100.00
23446;BME280;11895;48.738;9.320;2023-04-23T01:40:45;98172.03;;;14.15;100.00
23446;BME280;11895;48.738;9.320;2023-04-23T01:43:13;98169.00;;;14.20;100.00
23446;BME280;11895;48.738;9.320;2023-04-23T01:45:41;98169.78;;;14.22;100.00
23446;BME280;11895;48.738;9.320;2023-04-23T01:48:09;98186.66;;;14.26;100.00
23446;BME280;11895;48.738;9.320;2023-04-23T01:50:37;98181.66;;;14.20;100.00
23446;BME280;11895;48.738;9.320;2023-04-23T01:53:06;98188.81;;;14.33;100.00
23446;BME280;11895;48.738;9.320;2023-04-23T01:55:37;98198.34;;;14.26;100.00
23446;BME280;11895;48.738;9.320;2023-04-23T01:58:06;98195.56;;;14.28;100.00
23446;BME280;11895;48.738;9.320;2023-04-23T02:00:33;98197.06;;;14.32;100.00
23446;BME280;11895;48.738;9.320;2023-04-23T02:03:02;98191.00;;;14.41;100.00
23446;BME280;11895;48.738;9.320;2023-04-23T02:05:33;98192.47;;;14.45;100.00
23446;BME280;11895;48.738;9.320;2023-04-23T02:08:03;98186.88;;;14.48;100.00
23446;BME280;11895;48.738;9.320;2023-04-23T02:10:32;98192.28;;;14.48;100.00
23446;BME280;11895;48.738;9.320;2023-04-23T02:13:01;98205.28;;;14.43;100.00
23446;BME280;11895;48.738;9.320;2023-04-23T02:15:29;98205.06;;;14.46;100.00
23446;BME280;11895;48.738;9.320;2023-04-23T02:17:59;98202.38;;;14.46;100.00
23446;BME280;11895;48.738;9.320;2023-04-23T02:20:27;98210.81;;;14.16;100.00
23446;BME280;11895;48.738;9.320;2023-04-23T02:22:55;98213.72;;;14.26;100.00
23446;BME280;11895;48.738;9.320;2023-04-23T02:25:23;98220.88;;;14.39;100.00
23446;BME280;11895;48.738;9.320;2023-04-23T02:27:50;98206.81;;;14.34;100.00
23446;BME280;11895;48.738;9.320;2023-04-23T02:30:19;98215.91;;;14.33;100.00
23446;BME280;11895;48.738;9.320;2023-04-23T02:32:47;98220.66;;;14.30;100.00
23446;BME280;11895;48.738;9.320;2023-04-23T02:35:16;98210.47;;;14.21;100.00
23446;BME280;11895;48.738;9.320;2023-04-23T02:37:45;98204.41;;;14.30;100.00
23446;BME280;11895;48.738;9.320;2023-04-23T02:40:12;98200.22;;;14.13;100.00
23446;BME280;11895;48.738;9.320;2023-04-23T02:42:40;98198.59;;;14.23;100.00
23446;BME280;11895;48.738;9.320;2023-04-23T02:45:10;98202.03;;;14.00;100.00
23446;BME280;11895;48.738;9.320;2023-04-23T02:47:38;98205.50;;;14.14;100.00
23446;BME280;11895;48.738;9.320;2023-04-23T02:50:07;98212.88;;;14.12;100.00
23446;BME280;11895;48.738;9.320;2023-04-23T02:52:35;98200.53;;;14.08;100.00
23446;BME280;11895;48.738;9.320;2023-04-23T02:55:03;98208.44;;;14.11;100.00
23446;BME280;11895;48.738;9.320;2023-04-23T02:57:31;98203.78;;;14.13;100.00
23446;BME280;11895;48.738;9.320;2023-04-23T02:59:59;98209.19;;;14.13;100.00
23446;BME280;11895;48.738;9.320;2023-04-23T03:02:34;98210.72;;;14.18;100.00
23446;BME280;11895;48.738;9.320;2023-04-23T03:05:05;98214.72;;;13.99;100.00
23446;BME280;11895;48.738;9.320;2023-04-23T03:07:33;98220.03;;;13.88;100.00
23446;BME280;11895;48.738;9.320;2023-04-23T03:10:02;98219.75;;;13.66;100.00
23446;BME280;11895;48.738;9.320;2023-04-23T03:12:30;98221.19;;;13.71;100.00
23446;BME280;11895;48.738;9.320;2023-04-23T03:15:00;98211.66;;;13.26;100.00
23446;BME280;11895;48.738;9.320;2023-04-23T03:17:31;98209.69;;;13.28;100.00
23446;BME280;11895;48.738;9.320;2023-04-23T03:19:59;98201.31;;;13.45;100.00
23446;BME280;11895;48.738;9.320;2023-04-23T03:22:28;98204.06;;;13.71;100.00
23446;BME280;11895;48.738;9.320;2023-04-23T03:24:55;98207.25;;;13.90;100.00
23446;BME280;11895;48.738;9.320;2023-04-23T03:27:23;98210.28;;;13.98;100.00
23446;BME280;11895;48.738;9.320;2023-04-23T03:29:51;98205.72;;;13.99;100.00
23446;BME280;11895;48.738;9.320;2023-04-23T03:32:19;98194.59;;;14.03;100.00
23446;BME280;11895;48.738;9.320;2023-04-23T03:34:47;98192.41;;;14.08;100.00
23446;BME280;11895;48.738;9.320;2023-04-23T03:37:16;98189.47;;;14.11;100.00
23446;BME280;11895;48.738;9.320;2023-04-23T03:39:44;98194.75;;;13.87;100.00
23446;BME280;11895;48.738;9.320;2023-04-23T03:42:13;98202.03;;;13.87;100.00
23446;BME280;11895;48.738;9.320;2023-04-23T03:44:40;98189.38;;;14.00;100.00
23446;BME280;11895;48.738;9.320;2023-04-23T03:47:09;98194.03;;;13.98;100.00
23446;BME280;11895;48.738;9.320;2023-04-23T03:49:37;98198.56;;;14.10;100.00
23446;BME280;11895;48.738;9.320;2023-04-23T03:52:07;98196.09;;;14.07;100.00
23446;BME280;11895;48.738;9.320;2023-04-23T03:54:37;98184.28;;;14.08;100.00
23446;BME280;11895;48.738;9.320;2023-04-23T03:57:19;98196.22;;;13.93;100.00
23446;BME280;11895;48.738;9.320;2023-04-23T03:59:56;98202.22;;;13.71;100.00
23446;BME280;11895;48.738;9.320;2023-04-23T04:02:24;98214.38;;;13.91;100.00
23446;BME280;11895;48.738;9.320;2023-04-23T04:04:53;98211.00;;;13.75;100.00
23446;BME280;11895;48.738;9.320;2023-04-23T04:07:23;98223.47;;;13.90;100.00
23446;BME280;11895;48.738;9.320;2023-04-23T04:09:55;98217.19;;;13.89;100.00
23446;BME280;11895;48.738;9.320;2023-04-23T04:12:25;98215.25;;;14.04;100.00
23446;BME280;11895;48.738;9.320;2023-04-23T04:14:53;98215.47;;;14.01;100.00
23446;BME280;11895;48.738;9.320;2023-04-23T04:17:21;98220.78;;;13.90;100.00
23446;BME280;11895;48.738;9.320;2023-04-23T04:19:49;98223.72;;;14.00;100.00
23446;BME280;11895;48.738;9.320;2023-04-23T04:22:16;98224.34;;;13.91;100.00
23446;BME280;11895;48.738;9.320;2023-04-23T04:24:44;98222.94;;;13.85;100.00
23446;BME280;11895;48.738;9.320;2023-04-23T04:27:14;98222.81;;;13.86;100.00
23446;BME280;11895;48.738;9.320;2023-04-23T04:29:42;98214.38;;;14.17;100.00
23446;BME280;11895;48.738;9.320;2023-04-23T04:32:10;98215.91;;;14.33;100.00
23446;BME280;11895;48.738;9.320;2023-04-23T04:34:43;98215.25;;;14.30;100.00
23446;BME280;11895;48.738;9.320;2023-04-23T04:37:11;98203.22;;;14.34;100.00
23446;BME280;11895;48.738;9.320;2023-04-23T04:39:39;98212.44;;;14.44;100.00
23446;BME280;11895;48.738;9.320;2023-04-23T04:42:07;98214.59;;;14.39;100.00
23446;BME280;11895;48.738;9.320;2023-04-23T04:44:35;98212.00;;;14.37;100.00
23446;BME280;11895;48.738;9.320;2023-04-23T04:47:05;98212.44;;;14.44;100.00
23446;BME280;11895;48.738;9.320;2023-04-23T04:49:34;98209.63;;;14.58;100.00
23446;BME280;11895;48.738;9.320;2023-04-23T04:52:02;98212.00;;;14.50;100.00
23446;BME280;11895;48.738;9.320;2023-04-23T04:54:30;98204.97;;;14.60;100.00
23446;BME280;11895;48.738;9.320;2023-04-23T04:56:57;98200.50;;;14.59;100.00
23446;BME280;11895;48.738;9.320;2023-04-23T04:59:25;98211.25;;;14.48;100.00
23446;BME280;11895;48.738;9.320;2023-04-23T05:01:54;98212.56;;;14.55;100.00
23446;BME280;11895;48.738;9.320;2023-04-23T05:04:22;98211.44;;;14.45;100.00
23446;BME280;11895;48.738;9.320;2023-04-23T05:06:50;98200.09;;;14.53;100.00
23446;BME280;11895;48.738;9.320;2023-04-23T05:09:18;98208.31;;;14.64;100.00
23446;BME280;11895;48.738;9.320;2023-04-23T05:11:45;98203.31;;;14.71;100.00
23446;BME280;11895;48.738;9.320;2023-04-23T05:14:13;98217.41;;;14.76;100.00
23446;BME280;11895;48.738;9.320;2023-04-23T05:16:41;98212.19;;;14.73;100.00
23446;BME280;11895;48.738;9.320;2023-04-23T05:19:08;98205.88;;;14.85;100.00
23446;BME280;11895;48.738;9.320;2023-04-23T05:21:36;98210.84;;;14.91;100.00
23446;BME280;11895;48.738;9.320;2023-04-23T05:24:04;98203.25;;;14.96;100.00
23446;BME280;11895;48.738;9.320;2023-04-23T05:26:32;98202.31;;;15.08;100.00
23446;BME280;11895;48.738;9.320;2023-04-23T05:28:59;98207.66;;;15.10;100.00
23446;BME280;11895;48.738;9.320;2023-04-23T05:31:27;98209.72;;;15.06;100.00
23446;BME280;11895;48.738;9.320;2023-04-23T05:33:55;98216.81;;;14.96;100.00
23446;BME280;11895;48.738;9.320;2023-04-23T05:36:23;98221.00;;;14.38;100.00
23446;BME280;11895;48.738;9.320;2023-04-23T05:38:50;98212.78;;;14.52;100.00
23446;BME280;11895;48.738;9.320;2023-04-23T05:41:19;98220.66;;;14.81;100.00
23446;BME280;11895;48.738;9.320;2023-04-23T05:43:48;98213.03;;;14.86;100.00
23446;BME280;11895;48.738;9.320;2023-04-23T05:46:15;98213.22;;;14.96;100.00
23446;BME280;11895;48.738;9.320;2023-04-23T05:48:43;98211.44;;;15.07;100.00
23446;BME280;11895;48.738;9.320;2023-04-23T05:51:11;98200.66;;;15.19;100.00
23446;BME280;11895;48.738;9.320;2023-04-23T05:53:39;98211.06;;;15.25;100.00
23446;BME280;11895;48.738;9.320;2023-04-23T05:56:07;98204.69;;;15.37;100.00
23446;BME280;11895;48.738;9.320;2023-04-23T05:58:34;98207.97;;;15.53;100.00
23446;BME280;11895;48.738;9.320;2023-04-23T06:01:02;98200.81;;;15.52;100.00
23446;BME280;11895;48.738;9.320;2023-04-23T06:03:30;98211.28;;;15.70;100.00
23446;BME280;11895;48.738;9.320;2023-04-23T06:05:58;98210.94;;;15.61;100.00
23446;BME280;11895;48.738;9.320;2023-04-23T06:08:26;98204.84;;;15.71;100.00
23446;BME280;11895;48.738;9.320;2023-04-23T06:10:53;98208.81;;;15.66;100.00
23446;BME280;11895;48.738;9.320;2023-04-23T06:13:22;98208.84;;;15.89;100.00
23446;BME280;11895;48.738;9.320;2023-04-23T06:15:50;98202.63;;;16.11;100.00
23446;BME280;11895;48.738;9.320;2023-04-23T06:18:17;98205.94;;;16.14;100.00
23446;BME280;11895;48.738;9.320;2023-04-23T06:20:45;98213.59;;;15.39;100.00
23446;BME280;11895;48.738;9.320;2023-04-23T06:23:21;98213.56;;;15.87;100.00
23446;BME280;11895;48.738;9.320;2023-04-23T06:25:49;98210.88;;;15.39;100.00
23446;BME280;11895;48.738;9.320;2023-04-23T06:28:17;98210.28;;;15.71;100.00
23446;BME280;11895;48.738;9.320;2023-04-23T06:31:14;98208.44;;;16.17;100.00
23446;BME280;11895;48.738;9.320;2023-04-23T06:33:43;98209.16;;;16.08;100.00
23446;BME280;11895;48.738;9.320;2023-04-23T06:36:10;98203.72;;;16.08;100.00
23446;BME280;11895;48.738;9.320;2023-04-23T06:38:38;98204.72;;;16.18;100.00
23446;BME280;11895;48.738;9.320;2023-04-23T06:41:06;98202.50;;;16.24;100.00
23446;BME280;11895;48.738;9.320;2023-04-23T06:43:34;98205.88;;;16.61;100.00
23446;BME280;11895;48.738;9.320;2023-04-23T06:46:28;98199.31;;;16.86;100.00
23446;BME280;11895;48.738;9.320;2023-04-23T06:48:56;98195.81;;;17.06;100.00
23446;BME280;11895;48.738;9.320;2023-04-23T06:51:27;98189.94;;;16.90;100.00
23446;BME280;11895;48.738;9.320;2023-04-23T06:53:54;98183.50;;;17.02;100.00
23446;BME280;11895;48.738;9.320;2023-04-23T06:56:22;98178.25;;;17.21;100.00
23446;BME280;11895;48.738;9.320;2023-04-23T06:58:50;98185.97;;;16.94;100.00
23446;BME280;11895;48.738;9.320;2023-04-23T07:01:21;98180.97;;;17.10;100.00
23446;BME280;11895;48.738;9.320;2023-04-23T07:03:49;98180.09;;;17.10;100.00
23446;BME280;11895;48.738;9.320;2023-04-23T07:06:18;98179.53;;;16.61;100.00
23446;BME280;11895;48.738;9.320;2023-04-23T07:08:46;98185.63;;;16.54;100.00
23446;BME280;11895;48.738;9.320;2023-04-23T07:11:15;98186.72;;;16.85;100.00
23446;BME280;11895;48.738;9.320;2023-04-23T07:13:42;98171.50;;;16.60;100.00
23446;BME280;11895;48.738;9.320;2023-04-23T07:16:10;98161.50;;;16.83;100.00
23446;BME280;11895;48.738;9.320;2023-04-23T07:18:38;98163.97;;;16.52;100.00
23446;BME280;11895;48.738;9.320;2023-04-23T07:21:05;98162.47;;;16.48;100.00
23446;BME280;11895;48.738;9.320;2023-04-23T07:23:33;98164.22;;;16.60;100.00
23446;BME280;11895;48.738;9.320;2023-04-23T07:26:01;98164.97;;;16.17;100.00
23446;BME280;11895;48.738;9.320;2023-04-23T07:28:29;98163.72;;;16.55;100.00
23446;BME280;11895;48.738;9.320;2023-04-23T07:30:57;98168.44;;;16.76;100.00
23446;BME280;11895;48.738;9.320;2023-04-23T07:33:25;98170.16;;;16.88;100.00
23446;BME280;11895;48.738;9.320;2023-04-23T07:35:53;98168.88;;;15.91;100.00
23446;BME280;11895;48.738;9.320;2023-04-23T07:38:20;98166.69;;;16.52;100.00
23446;BME280;11895;48.738;9.320;2023-04-23T07:41:13;98160.25;;;16.87;100.00
23446;BME280;11895;48.738;9.320;2023-04-23T07:43:42;98156.47;;;17.21;100.00
23446;BME280;11895;48.738;9.320;2023-04-23T07:46:09;98159.53;;;17.49;100.00
23446;BME280;11895;48.738;9.320;2023-04-23T07:48:38;98151.00;;;17.54;100.00
23446;BME280;11895;48.738;9.320;2023-04-23T07:51:06;98158.88;;;17.36;100.00
23446;BME280;11895;48.738;9.320;2023-04-23T07:53:34;98158.69;;;17.69;100.00
23446;BME280;11895;48.738;9.320;2023-04-23T07:56:02;98157.31;;;18.17;100.00
23446;BME280;11895;48.738;9.320;2023-04-23T07:58:30;98147.38;;;18.37;100.00
23446;BME280;11895;48.738;9.320;2023-04-23T08:01:00;98144.38;;;18.40;100.00
23446;BME280;11895;48.738;9.320;2023-04-23T08:03:28;98138.94;;;18.40;100.00
23446;BME280;11895;48.738;9.320;2023-04-23T08:05:56;98148.31;;;18.78;100.00
23446;BME280;11895;48.738;9.320;2023-04-23T08:08:24;98145.50;;;19.18;100.00
23446;BME280;11895;48.738;9.320;2023-04-23T08:10:54;98139.88;;;19.19;100.00
23446;BME280;11895;48.738;9.320;2023-04-23T08:13:22;98135.88;;;18.64;100.00
23446;BME280;11895;48.738;9.320;2023-04-23T08:15:50;98141.28;;;18.54;100.00
23446;BME280;11895;48.738;9.320;2023-04-23T08:18:18;98132.84;;;18.27;100.00
23446;BME280;11895;48.738;9.320;2023-04-23T08:20:46;98127.63;;;18.14;100.00
23446;BME280;11895;48.738;9.320;2023-04-23T08:23:15;98124.78;;;17.73;100.00
23446;BME280;11895;48.738;9.320;2023-04-23T08:25:43;98129.34;;;17.84;100.00
23446;BME280;11895;48.738;9.320;2023-04-23T08:28:11;98122.66;;;17.98;100.00
23446;BME280;11895;48.738;9.320;2023-04-23T08:30:39;98126.38;;;17.97;100.00
23446;BME280;11895;48.738;9.320;2023-04-23T08:33:08;98119.56;;;18.73;100.00
23446;BME280;11895;48.738;9.320;2023-04-23T08:35:36;98125.84;;;17.29;100.00
23446;BME280;11895;48.738;9.320;2023-04-23T08:38:04;98114.13;;;17.50;100.00
23446;BME280;11895;48.738;9.320;2023-04-23T08:40:32;98113.84;;;18.15;100.00
23446;BME280;11895;48.738;9.320;2023-04-23T08:43:19;98118.03;;;19.00;100.00
23446;BME280;11895;48.738;9.320;2023-04-23T08:45:48;98119.66;;;19.32;100.00
23446;BME280;11895;48.738;9.320;2023-04-23T08:48:16;98110.75;;;19.39;100.00
23446;BME280;11895;48.738;9.320;2023-04-23T08:50:44;98095.91;;;19.81;100.00
23446;BME280;11895;48.738;9.320;2023-04-23T08:53:17;98091.97;;;20.12;100.00
23446;BME280;11895;48.738;9.320;2023-04-23T08:55:48;98100.81;;;20.24;100.00
23446;BME280;11895;48.738;9.320;2023-04-23T08:58:17;98111.25;;;18.85;100.00
23446;BME280;11895;48.738;9.320;2023-04-23T09:00:46;98102.16;;;19.63;100.00
23446;BME280;11895;48.738;9.320;2023-04-23T09:03:16;98105.66;;;20.40;100.00
23446;BME280;11895;48.738;9.320;2023-04-23T09:05:45;98097.69;;;20.19;100.00
23446;BME280;11895;48.738;9.320;2023-04-23T09:08:13;98091.91;;;20.59;97.19
23446;BME280;11895;48.738;9.320;2023-04-23T09:10:42;98104.41;;;19.29;100.00
23446;BME280;11895;48.738;9.320;2023-04-23T09:13:12;98101.94;;;18.97;100.00
23446;BME280;11895;48.738;9.320;2023-04-23T09:15:40;98092.06;;;19.73;98.65
23446;BME280;11895;48.738;9.320;2023-04-23T09:18:10;98093.03;;;19.34;100.00
23446;BME280;11895;48.738;9.320;2023-04-23T09:20:38;98080.44;;;20.09;98.13
23446;BME280;11895;48.738;9.320;2023-04-23T09:23:08;98079.38;;;19.72;100.00
23446;BME280;11895;48.738;9.320;2023-04-23T09:25:40;98076.31;;;19.95;100.00
23446;BME280;11895;48.738;9.320;2023-04-23T09:28:08;98074.78;;;20.85;98.26
23446;BME280;11895;48.738;9.320;2023-04-23T09:30:44;98070.66;;;21.16;94.98
23446;BME280;11895;48.738;9.320;2023-04-23T09:33:15;98073.19;;;20.82;90.81
23446;BME280;11895;48.738;9.320;2023-04-23T09:35:43;98063.59;;;20.96;86.16
23446;BME280;11895;48.738;9.320;2023-04-23T09:38:14;98053.44;;;21.42;84.70
23446;BME280;11895;48.738;9.320;2023-04-23T09:40:42;98050.94;;;21.66;81.65
23446;BME280;11895;48.738;9.320;2023-04-23T09:43:10;98041.47;;;21.87;75.28
23446;BME280;11895;48.738;9.320;2023-04-23T09:45:47;98041.78;;;21.84;76.29
23446;BME280;11895;48.738;9.320;2023-04-23T09:48:16;98046.78;;;20.91;83.02
23446;BME280;11895;48.738;9.320;2023-04-23T09:50:43;98052.69;;;20.68;82.58
23446;BME280;11895;48.738;9.320;2023-04-23T09:53:13;98036.38;;;20.76;82.37
23446;BME280;11895;48.738;9.320;2023-04-23T09:55:41;98040.34;;;20.82;86.56
23446;BME280;11895;48.738;9.320;2023-04-23T09:58:12;98037.47;;;21.19;83.90
23446;BME280;11895;48.738;9.320;2023-04-23T10:00:42;98036.00;;;20.89;83.45
23446;BME280;11895;48.738;9.320;2023-04-23T10:03:10;98039.06;;;21.40;82.62
23446;BME280;11895;48.738;9.320;2023-04-23T10:05:40;98044.88;;;20.46;79.49
23446;BME280;11895;48.738;9.320;2023-04-23T10:08:28;98033.53;;;20.13;81.36
23446;BME280;11895;48.738;9.320;2023-04-23T10:10:56;98026.69;;;19.90;81.67
23446;BME280;11895;48.738;9.320;2023-04-23T10:13:44;98017.97;;;20.69;75.57
23446;BME280;11895;48.738;9.320;2023-04-23T10:16:12;98012.91;;;20.46;75.43
23446;BME280;11895;48.738;9.320;2023-04-23T10:19:01;98021.78;;;20.03;73.01
23446;BME280;11895;48.738;9.320;2023-04-23T10:21:29;98011.09;;;19.53;79.46
23446;BME280;11895;48.738;9.320;2023-04-23T10:24:13;98002.63;;;20.31;74.64
23446;BME280;11895;48.738;9.320;2023-04-23T10:26:42;98006.34;;;21.20;68.43
23446;BME280;11895;48.738;9.320;2023-04-23T10:29:13;98000.63;;;21.32;68.65
23446;BME280;11895;48.738;9.320;2023-04-23T10:31:45;98000.78;;;21.12;70.84
23446;BME280;11895;48.738;9.320;2023-04-23T10:34:15;98000.84;;;21.20;62.30
23446;BME280;11895;48.738;9.320;2023-04-23T10:36:43;97987.84;;;21.22;61.65
23446;BME280;11895;48.738;9.320;2023-04-23T10:39:12;97990.81;;;21.99;59.43
23446;BME280;11895;48.738;9.320;2023-04-23T10:41:54;97989.91;;;22.16;53.99
23446;BME280;11895;48.738;9.320;2023-04-23T10:44:32;97990.06;;;21.89;58.48
23446;BME280;11895;48.738;9.320;2023-04-23T10:47:20;97975.25;;;21.73;60.58
23446;BME280;11895;48.738;9.320;2023-04-23T10:49:49;97986.03;;;21.75;55.20
23446;BME280;11895;48.738;9.320;2023-04-23T10:52:18;97977.59;;;22.20;53.30
23446;BME280;11895;48.738;9.320;2023-04-23T10:54:58;97974.22;;;22.35;55.07
23446;BME280;11895;48.738;9.320;2023-04-23T10:57:26;97972.09;;;21.94;56.96
23446;BME280;11895;48.738;9.320;2023-04-23T10:59:55;97958.50;;;22.61;55.46
23446;BME280;11895;48.738;9.320;2023-04-23T11:02:25;97948.81;;;23.07;52.90
23446;BME280;11895;48.738;9.320;2023-04-23T11:05:10;97950.00;;;23.13;47.74
23446;BME280;11895;48.738;9.320;2023-04-23T11:07:38;97942.78;;;23.37;47.61
23446;BME280;11895;48.738;9.320;2023-04-23T11:10:13;97943.13;;;23.33;50.67
23446;BME280;11895;48.738;9.320;2023-04-23T11:12:42;97939.25;;;23.83;49.20
23446;BME280;11895;48.738;9.320;2023-04-23T11:15:13;97943.38;;;22.06;50.08
23446;BME280;11895;48.738;9.320;2023-04-23T11:20:18;97921.44;;;22.65;56.66
23446;BME280;11895;48.738;9.320;2023-04-23T11:26:17;97927.31;;;23.11;49.17
23446;BME280;11895;48.738;9.320;2023-04-23T11:52:39;97895.34;;;26.26;40.56
23446;BME280;11895;48.738;9.320;2023-04-23T12:01:58;97876.06;;;26.11;36.90
23446;BME280;11895;48.738;9.320;2023-04-23T12:04:29;97882.03;;;26.15;37.65
23446;BME280;11895;48.738;9.320;2023-04-23T12:13:50;97855.69;;;25.01;38.22
23446;BME280;11895;48.738;9.320;2023-04-23T12:22:31;97856.09;;;24.90;41.04
23446;BME280;11895;48.738;9.320;2023-04-23T12:25:05;97853.09;;;25.52;37.48
23446;BME280;11895;48.738;9.320;2023-04-23T12:27:40;97842.34;;;24.90;39.97
23446;BME280;11895;48.738;9.320;2023-04-23T12:30:09;97846.13;;;24.88;40.66
23446;BME280;11895;48.738;9.320;2023-04-23T12:32:38;97843.97;;;26.10;36.42
23446;BME280;11895;48.738;9.320;2023-04-23T12:35:06;97832.66;;;27.27;35.46
23446;BME280;11895;48.738;9.320;2023-04-23T12:37:36;97830.38;;;28.13;34.29
23446;BME280;11895;48.738;9.320;2023-04-23T12:40:04;97819.72;;;28.78;31.62
23446;BME280;11895;48.738;9.320;2023-04-23T12:42:33;97820.56;;;29.72;30.13
23446;BME280;11895;48.738;9.320;2023-04-23T12:45:08;97810.25;;;30.43;29.27
23446;BME280;11895;48.738;9.320;2023-04-23T12:47:36;97802.41;;;31.47;28.02
23446;BME280;11895;48.738;9.320;2023-04-23T12:50:04;97806.09;;;29.23;30.09
23446;BME280;11895;48.738;9.320;2023-04-23T12:52:32;97807.03;;;28.29;32.09
23446;BME280;11895;48.738;9.320;2023-04-23T12:55:01;97809.00;;;30.78;29.03
23446;BME280;11895;48.738;9.320;2023-04-23T12:57:31;97814.28;;;30.86;28.85
23446;BME280;11895;48.738;9.320;2023-04-23T13:00:01;97809.41;;;30.81;27.24
23446;BME280;11895;48.738;9.320;2023-04-23T13:02:30;97798.47;;;31.36;27.24
23446;BME280;11895;48.738;9.320;2023-04-23T13:04:58;97796.38;;;31.93;27.03
23446;BME280;11895;48.738;9.320;2023-04-23T13:07:27;97792.59;;;31.88;26.79
23446;BME280;11895;48.738;9.320;2023-04-23T13:09:56;97785.97;;;32.37;26.03
23446;BME280;11895;48.738;9.320;2023-04-23T13:12:23;97780.28;;;33.28;25.03
23446;BME280;11895;48.738;9.320;2023-04-23T13:14:51;97768.50;;;32.60;25.33
23446;BME280;11895;48.738;9.320;2023-04-23T13:17:20;97762.16;;;32.05;26.79
23446;BME280;11895;48.738;9.320;2023-04-23T13:19:49;97755.00;;;32.57;25.91
23446;BME280;11895;48.738;9.320;2023-04-23T13:22:20;97754.59;;;31.93;27.41
23446;BME280;11895;48.738;9.320;2023-04-23T13:24:48;97750.31;;;33.23;25.48
23446;BME280;11895;48.738;9.320;2023-04-23T13:27:16;97743.47;;;30.25;28.01
23446;BME280;11895;48.738;9.320;2023-04-23T13:29:44;97737.72;;;29.75;28.96
23446;BME280;11895;48.738;9.320;2023-04-23T13:32:11;97731.31;;;29.68;29.05
23446;BME280;11895;48.738;9.320;2023-04-23T13:34:39;97721.91;;;27.77;31.32
23446;BME280;11895;48.738;9.320;2023-04-23T13:37:07;97717.50;;;26.85;32.97
23446;BME280;11895;48.738;9.320;2023-04-23T13:39:36;97709.88;;;27.56;32.67
23446;BME280;11895;48.738;9.320;2023-04-23T13:42:10;97707.03;;;29.57;29.29
23446;BME280;11895;48.738;9.320;2023-04-23T13:44:38;97710.84;;;29.69;28.22
23446;BME280;11895;48.738;9.320;2023-04-23T13:47:05;97708.00;;;28.71;29.83
23446;BME280;11895;48.738;9.320;2023-04-23T13:49:33;97699.06;;;27.27;31.40
23446;BME280;11895;48.738;9.320;2023-04-23T13:52:02;97691.81;;;26.63;32.68
23446;BME280;11895;48.738;9.320;2023-04-23T13:54:33;97698.94;;;25.35;34.92